Las Tapias, Argentina
Current Conditions -  °F | °C
As of 12:00 PM on Monday 24 Nov 2014 (Local Time) from SACO Reporting Station
Broken Clouds Broken Clouds  
Wind Chill: 20°   Ceiling: 2000
Heat Index: 20°   Visibility: 6mi
Dew Point: 14°   Wind: 21mph
Humidity: 68%   Direction: 200°SSW
Pressure: 29.94"   Gusts: 32mph
Location:  31.94°S, 65.07°W
Report Text: SACO 241500Z 20018G28KT 9999 BKN020SCT025 20/14 Q1014
Loading
Personal Weather Stations






























Interactive Weather Map New forecast layout! Learn more

10-Day Weather Forecast

Advertisements
Track Severe Weather on mobile